createdAt,value
2019-04-27T00:00:20.099Z,68
2019-04-27T00:16:13.860Z,68
2019-04-27T00:26:39.556Z,69
2019-04-27T00:42:24.523Z,70
2019-04-27T00:47:38.923Z,72
2019-04-27T00:52:54.511Z,72
2019-04-27T01:14:09.729Z,71
2019-04-27T01:29:51.333Z,71
2019-04-27T01:45:32.980Z,71
2019-04-27T01:50:50.324Z,71
2019-04-27T01:56:11.860Z,71
2019-04-27T02:06:39.878Z,71
2019-04-27T02:17:06.109Z,71
2019-04-27T02:22:21.403Z,71
2019-04-27T02:38:00.158Z,71
2019-04-27T02:43:16.456Z,71
2019-04-27T02:48:30.654Z,71
2019-04-27T02:53:46.293Z,71
2019-04-27T02:59:00.813Z,71
2019-04-27T03:04:20.835Z,71
2019-04-27T03:09:33.994Z,71
2019-04-27T03:14:47.284Z,71
2019-04-27T03:20:02.816Z,71
2019-04-27T03:25:16.810Z,71
2019-04-27T03:30:44.008Z,71
2019-04-27T03:35:56.043Z,72
2019-04-27T03:41:13.214Z,72
2019-04-27T03:47:02.420Z,72
2019-04-27T03:52:21.251Z,72
2019-04-27T03:57:41.219Z,72
2019-04-27T04:02:57.459Z,71
2019-04-27T04:08:14.080Z,71
2019-04-27T04:13:35.192Z,71
2019-04-27T04:18:51.215Z,71
2019-04-27T04:24:11.961Z,71
2019-04-27T04:29:32.007Z,71
2019-04-27T04:34:46.667Z,71
2019-04-27T04:40:02.218Z,70
2019-04-27T04:45:17.241Z,70
2019-04-27T04:50:32.896Z,70
2019-04-27T04:55:52.440Z,70
2019-04-27T05:01:11.316Z,69
2019-04-27T05:06:26.823Z,68
2019-04-27T05:11:42.021Z,65
2019-04-27T05:17:00.215Z,65
2019-04-27T05:22:20.367Z,62
2019-04-27T05:27:41.360Z,61
2019-04-27T05:32:59.343Z,60
2019-04-27T05:38:19.014Z,58
2019-04-27T05:43:34.530Z,56
2019-04-27T05:48:51.954Z,55
2019-04-27T05:54:09.659Z,55
2019-04-27T05:59:29.529Z,54
2019-04-27T06:41:19.143Z,55
2019-04-27T06:51:44.280Z,54
2019-04-27T06:57:00.370Z,54
2019-04-27T07:02:15.188Z,54
2019-04-27T07:07:30.968Z,55
2019-04-27T07:12:45.811Z,54
2019-04-27T07:18:00.893Z,55
2019-04-27T07:23:16.523Z,54
2019-04-27T07:28:34.535Z,53
2019-04-27T07:33:59.328Z,53
2019-04-27T07:39:16.304Z,52
2019-04-27T07:49:47.476Z,50
2019-04-27T07:55:01.698Z,50
2019-04-27T08:00:16.281Z,50
2019-04-27T08:05:31.922Z,51
2019-04-27T08:10:50.902Z,50
2019-04-27T08:31:49.034Z,49
2019-04-27T08:42:16.943Z,49
2019-04-27T08:47:32.887Z,49
2019-04-27T08:52:51.621Z,49
2019-04-27T08:58:05.943Z,49
2019-04-27T09:03:21.098Z,48
2019-04-27T09:13:49.586Z,48
2019-04-27T09:19:08.594Z,48
2019-04-27T09:24:29.978Z,48
2019-04-27T09:29:45.044Z,47
2019-04-27T10:11:36.067Z,45
2019-04-27T12:33:01.385Z,39
2019-04-27T12:38:18.000Z,38
2019-04-27T12:48:58.201Z,36
2019-04-27T15:15:45.549Z,35
2019-04-27T15:36:45.261Z,36
2019-04-27T15:42:10.279Z,37
2019-04-27T15:52:38.466Z,37
2019-04-27T15:57:53.952Z,37
2019-04-27T16:08:20.003Z,38
2019-04-27T16:13:37.809Z,38
2019-04-27T16:18:51.848Z,39
2019-04-27T16:24:06.354Z,39
2019-04-27T16:29:31.862Z,39
2019-04-27T16:34:45.757Z,40
2019-04-27T16:40:03.068Z,40
2019-04-27T16:45:28.072Z,41
2019-04-27T16:50:42.341Z,42
2019-04-27T16:56:14.112Z,42
2019-04-27T17:06:50.347Z,43
2019-04-27T17:12:10.066Z,44
2019-04-27T17:17:29.615Z,44
2019-04-27T17:22:54.088Z,44
2019-04-27T17:28:16.995Z,45
2019-04-27T17:33:34.649Z,46
2019-04-27T17:38:52.264Z,46
2019-04-27T17:44:08.488Z,47
2019-04-27T17:49:23.202Z,47
2019-04-27T17:54:49.023Z,48
2019-04-27T18:00:08.586Z,49
2019-04-27T18:05:23.258Z,49
2019-04-27T18:10:39.009Z,50
2019-04-27T18:15:55.595Z,50
2019-04-27T18:21:16.032Z,53
2019-04-27T18:26:32.286Z,55
2019-04-27T18:31:55.206Z,57
2019-04-27T18:37:25.178Z,56
2019-04-27T18:42:39.973Z,56
2019-04-27T18:47:55.419Z,56
2019-04-27T18:53:24.783Z,56
2019-04-27T18:58:37.301Z,55
2019-04-27T19:03:55.096Z,55
2019-04-27T19:09:15.030Z,55
2019-04-27T19:14:30.403Z,55
2019-04-27T19:19:47.785Z,55
2019-04-27T19:25:04.059Z,55
2019-04-27T19:30:23.634Z,55
2019-04-27T19:35:38.823Z,55
2019-04-27T19:40:55.113Z,56
2019-04-27T19:46:14.958Z,56
2019-04-27T19:51:33.398Z,56
2019-04-27T19:56:47.632Z,57
2019-04-27T20:02:02.834Z,57
2019-04-27T20:07:19.395Z,58
2019-04-27T20:12:42.048Z,57
2019-04-27T20:17:56.056Z,58
2019-04-27T20:23:10.716Z,59
2019-04-27T20:28:26.535Z,59
2019-04-27T20:33:42.752Z,59
2019-04-27T20:38:57.690Z,59
2019-04-27T20:44:14.168Z,60
2019-04-27T20:49:34.201Z,60
2019-04-27T20:54:51.274Z,60
2019-04-27T21:00:07.365Z,61
2019-04-27T21:05:23.119Z,61
2019-04-27T21:10:40.808Z,61
2019-04-27T21:15:56.299Z,62
2019-04-27T21:21:12.813Z,63
2019-04-27T21:26:28.023Z,62
2019-04-27T21:31:44.466Z,63
2019-04-27T21:37:02.462Z,63
2019-04-27T21:42:16.519Z,64
2019-04-27T21:47:31.193Z,64
2019-04-27T21:52:47.211Z,66
2019-04-27T21:58:03.142Z,68
2019-04-27T22:08:33.251Z,71
2019-04-27T22:19:01.724Z,71
2019-04-27T22:24:22.561Z,72
2019-04-27T22:34:48.844Z,72
2019-04-27T22:40:02.982Z,72
2019-04-27T22:55:42.646Z,73
2019-04-27T23:00:56.707Z,76
2019-04-27T23:06:13.566Z,76
2019-04-27T23:11:34.195Z,78
2019-04-27T23:16:54.930Z,78
2019-04-27T23:22:11.747Z,80
2019-04-27T23:27:24.250Z,79
2019-04-27T23:32:38.803Z,79
2019-04-27T23:37:53.988Z,80
2019-04-27T23:43:12.634Z,80
2019-04-27T23:48:28.123Z,80
2019-04-27T23:53:43.202Z,80
2019-04-27T23:59:01.317Z,81
